sensor_id;sensor_type;location;lat;lon;timestamp;pressure;altitude;pressure_sealevel;temperature;humidity
51468;BME280;37545;45.302;-122.946;2023-02-02T00:01:46;101372.25;;;10.78;36.01
51468;BME280;37545;45.302;-122.946;2023-02-02T00:04:16;101366.03;;;10.73;36.30
51468;BME280;37545;45.302;-122.946;2023-02-02T00:06:45;101366.72;;;10.69;36.22
51468;BME280;37545;45.302;-122.946;2023-02-02T00:09:16;101363.59;;;10.55;36.36
51468;BME280;37545;45.302;-122.946;2023-02-02T00:11:46;101361.41;;;10.43;36.69
51468;BME280;37545;45.302;-122.946;2023-02-02T00:14:16;101362.88;;;10.37;36.35
51468;BME280;37545;45.302;-122.946;2023-02-02T00:16:46;101366.28;;;10.36;36.51
51468;BME280;37545;45.302;-122.946;2023-02-02T00:19:16;101362.78;;;10.35;36.80
51468;BME280;37545;45.302;-122.946;2023-02-02T00:21:45;101359.28;;;10.33;36.72
51468;BME280;37545;45.302;-122.946;2023-02-02T00:24:16;101359.00;;;10.27;37.76
51468;BME280;37545;45.302;-122.946;2023-02-02T00:26:47;101364.78;;;10.21;37.41
51468;BME280;37545;45.302;-122.946;2023-02-02T00:29:18;101360.47;;;10.20;38.28
51468;BME280;37545;45.302;-122.946;2023-02-02T00:31:49;101343.91;;;10.17;37.87
51468;BME280;37545;45.302;-122.946;2023-02-02T00:34:18;101354.25;;;10.17;36.70
51468;BME280;37545;45.302;-122.946;2023-02-02T00:36:47;101352.22;;;10.08;37.41
51468;BME280;37545;45.302;-122.946;2023-02-02T00:39:20;101359.69;;;10.02;38.63
51468;BME280;37545;45.302;-122.946;2023-02-02T00:41:55;101352.56;;;9.96;39.91
51468;BME280;37545;45.302;-122.946;2023-02-02T00:44:24;101358.38;;;9.91;40.88
51468;BME280;37545;45.302;-122.946;2023-02-02T00:47:09;101356.09;;;9.77;41.14
51468;BME280;37545;45.302;-122.946;2023-02-02T00:49:38;101362.66;;;9.69;40.73
51468;BME280;37545;45.302;-122.946;2023-02-02T00:52:06;101364.13;;;9.64;42.61
51468;BME280;37545;45.302;-122.946;2023-02-02T00:54:37;101361.34;;;9.59;42.45
51468;BME280;37545;45.302;-122.946;2023-02-02T00:57:20;101366.28;;;9.53;42.43
51468;BME280;37545;45.302;-122.946;2023-02-02T00:59:55;101346.06;;;9.44;41.56
51468;BME280;37545;45.302;-122.946;2023-02-02T01:02:24;101360.63;;;9.42;41.08
51468;BME280;37545;45.302;-122.946;2023-02-02T01:04:52;101354.31;;;9.36;42.14
51468;BME280;37545;45.302;-122.946;2023-02-02T01:07:21;101349.56;;;9.26;43.16
51468;BME280;37545;45.302;-122.946;2023-02-02T01:09:51;101351.53;;;9.12;42.40
51468;BME280;37545;45.302;-122.946;2023-02-02T01:12:20;101359.53;;;8.98;43.16
51468;BME280;37545;45.302;-122.946;2023-02-02T01:14:48;101357.31;;;8.88;45.09
51468;BME280;37545;45.302;-122.946;2023-02-02T01:17:17;101356.16;;;8.81;42.71
51468;BME280;37545;45.302;-122.946;2023-02-02T01:19:46;101361.81;;;8.73;43.50
51468;BME280;37545;45.302;-122.946;2023-02-02T01:22:14;101358.72;;;8.62;43.58
51468;BME280;37545;45.302;-122.946;2023-02-02T01:24:43;101365.06;;;8.51;45.14
51468;BME280;37545;45.302;-122.946;2023-02-02T01:27:13;101364.69;;;8.43;44.63
51468;BME280;37545;45.302;-122.946;2023-02-02T01:29:42;101362.66;;;8.37;45.83
51468;BME280;37545;45.302;-122.946;2023-02-02T01:32:11;101366.59;;;8.29;45.21
51468;BME280;37545;45.302;-122.946;2023-02-02T01:34:39;101374.81;;;8.22;45.33
51468;BME280;37545;45.302;-122.946;2023-02-02T01:37:09;101375.19;;;8.12;44.15
51468;BME280;37545;45.302;-122.946;2023-02-02T01:39:38;101384.22;;;8.04;45.04
51468;BME280;37545;45.302;-122.946;2023-02-02T01:42:13;101379.50;;;7.95;47.13
51468;BME280;37545;45.302;-122.946;2023-02-02T01:45:06;101378.88;;;7.83;44.96
51468;BME280;37545;45.302;-122.946;2023-02-02T01:47:38;101374.06;;;7.72;45.77
51468;BME280;37545;45.302;-122.946;2023-02-02T01:50:10;101391.63;;;7.63;46.39
51468;BME280;37545;45.302;-122.946;2023-02-02T01:52:40;101381.66;;;7.53;46.77
51468;BME280;37545;45.302;-122.946;2023-02-02T01:55:13;101382.00;;;7.43;47.01
51468;BME280;37545;45.302;-122.946;2023-02-02T01:57:47;101381.50;;;7.33;47.41
51468;BME280;37545;45.302;-122.946;2023-02-02T02:00:19;101383.59;;;7.24;47.50
51468;BME280;37545;45.302;-122.946;2023-02-02T02:02:52;101382.28;;;7.16;47.84
51468;BME280;37545;45.302;-122.946;2023-02-02T02:05:27;101387.75;;;7.06;48.40
51468;BME280;37545;45.302;-122.946;2023-02-02T02:08:02;101382.13;;;6.97;48.41
51468;BME280;37545;45.302;-122.946;2023-02-02T02:10:32;101377.16;;;6.85;48.91
51468;BME280;37545;45.302;-122.946;2023-02-02T02:13:03;101386.81;;;6.72;49.40
51468;BME280;37545;45.302;-122.946;2023-02-02T02:15:37;101383.63;;;6.62;50.30
51468;BME280;37545;45.302;-122.946;2023-02-02T02:18:29;101383.94;;;6.52;50.72
51468;BME280;37545;45.302;-122.946;2023-02-02T02:21:22;101379.88;;;6.40;50.90
51468;BME280;37545;45.302;-122.946;2023-02-02T02:33:42;101402.38;;;6.00;52.16
51468;BME280;37545;45.302;-122.946;2023-02-02T02:36:17;101405.38;;;5.93;52.27
51468;BME280;37545;45.302;-122.946;2023-02-02T02:38:50;101414.31;;;5.84;52.25
51468;BME280;37545;45.302;-122.946;2023-02-02T02:41:27;101423.13;;;5.75;53.01
51468;BME280;37545;45.302;-122.946;2023-02-02T02:44:03;101428.72;;;5.67;53.42
51468;BME280;37545;45.302;-122.946;2023-02-02T02:46:33;101430.94;;;5.61;54.05
51468;BME280;37545;45.302;-122.946;2023-02-02T02:49:06;101428.75;;;5.54;54.49
51468;BME280;37545;45.302;-122.946;2023-02-02T02:51:46;101423.16;;;5.46;54.13
51468;BME280;37545;45.302;-122.946;2023-02-02T02:54:19;101435.56;;;5.39;54.74
51468;BME280;37545;45.302;-122.946;2023-02-02T02:57:05;101429.94;;;5.31;55.29
51468;BME280;37545;45.302;-122.946;2023-02-02T02:59:45;101425.13;;;5.22;54.88
51468;BME280;37545;45.302;-122.946;2023-02-02T03:02:29;101414.50;;;5.16;55.13
51468;BME280;37545;45.302;-122.946;2023-02-02T03:05:10;101419.22;;;5.10;55.66
51468;BME280;37545;45.302;-122.946;2023-02-02T03:07:43;101404.16;;;5.01;55.59
51468;BME280;37545;45.302;-122.946;2023-02-02T03:10:17;101408.03;;;4.95;55.92
51468;BME280;37545;45.302;-122.946;2023-02-02T03:12:48;101411.19;;;4.91;57.29
51468;BME280;37545;45.302;-122.946;2023-02-02T03:15:18;101411.59;;;4.83;57.82
51468;BME280;37545;45.302;-122.946;2023-02-02T03:17:47;101398.00;;;4.71;57.87
51468;BME280;37545;45.302;-122.946;2023-02-02T03:20:19;101403.53;;;4.64;57.78
51468;BME280;37545;45.302;-122.946;2023-02-02T03:22:48;101397.03;;;4.56;58.30
51468;BME280;37545;45.302;-122.946;2023-02-02T03:25:16;101403.81;;;4.55;58.64
51468;BME280;37545;45.302;-122.946;2023-02-02T03:27:45;101399.19;;;4.50;58.36
51468;BME280;37545;45.302;-122.946;2023-02-02T03:30:14;101406.69;;;4.47;59.17
51468;BME280;37545;45.302;-122.946;2023-02-02T03:32:42;101414.16;;;4.44;59.51
51468;BME280;37545;45.302;-122.946;2023-02-02T03:35:11;101406.28;;;4.40;59.72
51468;BME280;37545;45.302;-122.946;2023-02-02T03:37:41;101414.56;;;4.36;59.83
51468;BME280;37545;45.302;-122.946;2023-02-02T03:40:12;101413.47;;;4.33;60.35
51468;BME280;37545;45.302;-122.946;2023-02-02T03:42:40;101418.22;;;4.27;59.53
51468;BME280;37545;45.302;-122.946;2023-02-02T03:45:10;101419.47;;;4.20;60.35
51468;BME280;37545;45.302;-122.946;2023-02-02T03:47:39;101408.94;;;4.15;60.83
51468;BME280;37545;45.302;-122.946;2023-02-02T03:50:08;101400.75;;;4.08;61.19
51468;BME280;37545;45.302;-122.946;2023-02-02T03:52:37;101403.91;;;4.04;62.30
51468;BME280;37545;45.302;-122.946;2023-02-02T03:55:08;101406.22;;;4.01;61.44
51468;BME280;37545;45.302;-122.946;2023-02-02T03:57:36;101408.50;;;3.96;61.60
51468;BME280;37545;45.302;-122.946;2023-02-02T04:00:06;101406.88;;;3.85;61.45
51468;BME280;37545;45.302;-122.946;2023-02-02T04:02:35;101403.81;;;3.77;61.17
51468;BME280;37545;45.302;-122.946;2023-02-02T04:05:04;101406.06;;;3.72;62.15
51468;BME280;37545;45.302;-122.946;2023-02-02T04:07:33;101413.44;;;3.68;61.62
51468;BME280;37545;45.302;-122.946;2023-02-02T04:10:01;101413.94;;;3.62;62.55
51468;BME280;37545;45.302;-122.946;2023-02-02T04:12:31;101416.19;;;3.58;63.77
51468;BME280;37545;45.302;-122.946;2023-02-02T04:15:00;101422.84;;;3.55;63.56
51468;BME280;37545;45.302;-122.946;2023-02-02T04:17:29;101420.88;;;3.51;63.70
51468;BME280;37545;45.302;-122.946;2023-02-02T04:19:57;101421.53;;;3.49;64.49
51468;BME280;37545;45.302;-122.946;2023-02-02T04:22:26;101427.34;;;3.46;63.90
51468;BME280;37545;45.302;-122.946;2023-02-02T04:24:54;101421.00;;;3.41;64.31
51468;BME280;37545;45.302;-122.946;2023-02-02T04:27:23;101414.69;;;3.36;63.00
51468;BME280;37545;45.302;-122.946;2023-02-02T04:29:53;101414.28;;;3.30;62.98
51468;BME280;37545;45.302;-122.946;2023-02-02T04:32:22;101417.41;;;3.26;63.32
51468;BME280;37545;45.302;-122.946;2023-02-02T04:34:50;101414.59;;;3.23;63.80
51468;BME280;37545;45.302;-122.946;2023-02-02T04:37:19;101403.38;;;3.21;63.39
51468;BME280;37545;45.302;-122.946;2023-02-02T04:39:47;101396.06;;;3.13;63.66
51468;BME280;37545;45.302;-122.946;2023-02-02T04:42:16;101402.75;;;3.11;63.83
51468;BME280;37545;45.302;-122.946;2023-02-02T04:44:45;101394.44;;;3.02;64.47
51468;BME280;37545;45.302;-122.946;2023-02-02T04:47:15;101381.66;;;3.02;64.44
51468;BME280;37545;45.302;-122.946;2023-02-02T04:49:43;101384.22;;;3.02;64.86
51468;BME280;37545;45.302;-122.946;2023-02-02T04:52:12;101397.34;;;2.95;64.74
51468;BME280;37545;45.302;-122.946;2023-02-02T04:54:40;101399.69;;;2.92;65.19
51468;BME280;37545;45.302;-122.946;2023-02-02T04:57:09;101396.16;;;2.90;65.49
51468;BME280;37545;45.302;-122.946;2023-02-02T04:59:38;101396.16;;;2.90;66.48
51468;BME280;37545;45.302;-122.946;2023-02-02T05:02:06;101401.94;;;2.87;66.35
51468;BME280;37545;45.302;-122.946;2023-02-02T05:04:36;101397.69;;;2.88;67.45
51468;BME280;37545;45.302;-122.946;2023-02-02T05:07:05;101393.38;;;2.87;66.71
51468;BME280;37545;45.302;-122.946;2023-02-02T05:09:34;101398.50;;;2.87;66.44
51468;BME280;37545;45.302;-122.946;2023-02-02T05:12:03;101402.59;;;2.85;66.59
51468;BME280;37545;45.302;-122.946;2023-02-02T05:14:31;101403.16;;;2.81;66.40
51468;BME280;37545;45.302;-122.946;2023-02-02T05:17:00;101400.47;;;2.79;67.43
51468;BME280;37545;45.302;-122.946;2023-02-02T05:19:28;101398.59;;;2.77;68.00
51468;BME280;37545;45.302;-122.946;2023-02-02T05:21:59;101406.28;;;2.77;67.61
51468;BME280;37545;45.302;-122.946;2023-02-02T05:24:27;101419.06;;;2.77;68.50
51468;BME280;37545;45.302;-122.946;2023-02-02T05:26:56;101416.41;;;2.75;68.15
51468;BME280;37545;45.302;-122.946;2023-02-02T05:29:26;101419.94;;;2.77;69.70
51468;BME280;37545;45.302;-122.946;2023-02-02T05:31:54;101424.16;;;2.77;69.13
51468;BME280;37545;45.302;-122.946;2023-02-02T05:34:23;101435.94;;;2.75;68.61
51468;BME280;37545;45.302;-122.946;2023-02-02T05:36:51;101422.41;;;2.76;70.82
51468;BME280;37545;45.302;-122.946;2023-02-02T05:39:22;101434.38;;;2.77;70.64
51468;BME280;37545;45.302;-122.946;2023-02-02T05:41:50;101442.84;;;2.76;70.20
51468;BME280;37545;45.302;-122.946;2023-02-02T05:44:19;101437.72;;;2.76;69.78
51468;BME280;37545;45.302;-122.946;2023-02-02T05:46:47;101439.28;;;2.73;69.23
51468;BME280;37545;45.302;-122.946;2023-02-02T05:49:16;101441.03;;;2.75;70.10
51468;BME280;37545;45.302;-122.946;2023-02-02T05:51:46;101443.41;;;2.71;69.70
51468;BME280;37545;45.302;-122.946;2023-02-02T05:54:15;101436.53;;;2.70;70.30
51468;BME280;37545;45.302;-122.946;2023-02-02T05:56:48;101433.97;;;2.70;70.98
51468;BME280;37545;45.302;-122.946;2023-02-02T05:59:17;101444.19;;;2.70;71.22
51468;BME280;37545;45.302;-122.946;2023-02-02T06:01:46;101434.72;;;2.69;70.72
51468;BME280;37545;45.302;-122.946;2023-02-02T06:04:15;101434.59;;;2.68;70.92
51468;BME280;37545;45.302;-122.946;2023-02-02T06:06:43;101429.41;;;2.66;70.07
51468;BME280;37545;45.302;-122.946;2023-02-02T06:09:13;101436.06;;;2.64;70.21
51468;BME280;37545;45.302;-122.946;2023-02-02T06:11:42;101430.75;;;2.61;70.76
51468;BME280;37545;45.302;-122.946;2023-02-02T06:14:13;101428.84;;;2.59;71.22
51468;BME280;37545;45.302;-122.946;2023-02-02T06:16:41;101432.84;;;2.55;71.28
51468;BME280;37545;45.302;-122.946;2023-02-02T06:19:10;101438.72;;;2.54;71.44
51468;BME280;37545;45.302;-122.946;2023-02-02T06:21:38;101443.75;;;2.53;72.03
51468;BME280;37545;45.302;-122.946;2023-02-02T06:24:07;101444.63;;;2.53;72.01
51468;BME280;37545;45.302;-122.946;2023-02-02T06:26:36;101449.84;;;2.55;71.76
51468;BME280;37545;45.302;-122.946;2023-02-02T06:29:04;101449.06;;;2.56;71.74
51468;BME280;37545;45.302;-122.946;2023-02-02T06:31:35;101454.16;;;2.56;72.27
51468;BME280;37545;45.302;-122.946;2023-02-02T06:34:03;101453.16;;;2.54;71.93
51468;BME280;37545;45.302;-122.946;2023-02-02T06:36:32;101446.16;;;2.51;72.61
51468;BME280;37545;45.302;-122.946;2023-02-02T06:39:01;101447.97;;;2.52;72.60
51468;BME280;37545;45.302;-122.946;2023-02-02T06:41:31;101449.53;;;2.50;71.38
51468;BME280;37545;45.302;-122.946;2023-02-02T06:44:00;101461.28;;;2.48;71.78
51468;BME280;37545;45.302;-122.946;2023-02-02T06:46:28;101456.94;;;2.47;71.96
51468;BME280;37545;45.302;-122.946;2023-02-02T06:48:59;101455.84;;;2.43;72.12
51468;BME280;37545;45.302;-122.946;2023-02-02T06:51:27;101459.69;;;2.38;71.88
51468;BME280;37545;45.302;-122.946;2023-02-02T06:53:56;101455.25;;;2.36;73.03
51468;BME280;37545;45.302;-122.946;2023-02-02T06:56:24;101452.63;;;2.34;72.74
51468;BME280;37545;45.302;-122.946;2023-02-02T06:58:53;101446.59;;;2.34;72.47
51468;BME280;37545;45.302;-122.946;2023-02-02T07:01:22;101455.03;;;2.33;72.50
51468;BME280;37545;45.302;-122.946;2023-02-02T07:03:50;101459.03;;;2.29;72.00
51468;BME280;37545;45.302;-122.946;2023-02-02T07:06:21;101460.25;;;2.22;72.56
51468;BME280;37545;45.302;-122.946;2023-02-02T07:08:50;101467.78;;;2.09;74.70
51468;BME280;37545;45.302;-122.946;2023-02-02T07:11:19;101465.72;;;1.93;75.12
51468;BME280;37545;45.302;-122.946;2023-02-02T07:13:48;101471.03;;;1.84;75.54
51468;BME280;37545;45.302;-122.946;2023-02-02T07:16:17;101473.56;;;1.84;75.89
51468;BME280;37545;45.302;-122.946;2023-02-02T07:18:46;101477.13;;;1.86;75.08
51468;BME280;37545;45.302;-122.946;2023-02-02T07:21:17;101476.34;;;1.87;75.23
51468;BME280;37545;45.302;-122.946;2023-02-02T07:23:47;101468.81;;;1.89;74.53
51468;BME280;37545;45.302;-122.946;2023-02-02T07:26:17;101473.03;;;1.88;74.49
51468;BME280;37545;45.302;-122.946;2023-02-02T07:28:46;101473.78;;;1.87;74.43
51468;BME280;37545;45.302;-122.946;2023-02-02T07:31:17;101478.69;;;1.84;74.39
51468;BME280;37545;45.302;-122.946;2023-02-02T07:33:49;101476.00;;;1.83;73.87
51468;BME280;37545;45.302;-122.946;2023-02-02T07:36:19;101477.44;;;1.79;74.40
51468;BME280;37545;45.302;-122.946;2023-02-02T07:38:51;101479.00;;;1.77;74.76
51468;BME280;37545;45.302;-122.946;2023-02-02T07:41:21;101482.44;;;1.78;74.83
51468;BME280;37545;45.302;-122.946;2023-02-02T07:43:49;101475.56;;;1.77;74.88
51468;BME280;37545;45.302;-122.946;2023-02-02T07:46:19;101466.41;;;1.68;74.29
51468;BME280;37545;45.302;-122.946;2023-02-02T07:48:47;101469.41;;;1.63;75.20
51468;BME280;37545;45.302;-122.946;2023-02-02T07:51:17;101474.16;;;1.58;75.64
51468;BME280;37545;45.302;-122.946;2023-02-02T07:53:46;101477.22;;;1.54;76.27
51468;BME280;37545;45.302;-122.946;2023-02-02T07:56:18;101481.19;;;1.51;75.46
51468;BME280;37545;45.302;-122.946;2023-02-02T07:58:47;101468.97;;;1.46;76.07
51468;BME280;37545;45.302;-122.946;2023-02-02T08:01:16;101468.00;;;1.44;75.75
51468;BME280;37545;45.302;-122.946;2023-02-02T08:03:45;101469.63;;;1.44;76.48
51468;BME280;37545;45.302;-122.946;2023-02-02T08:06:16;101473.84;;;1.43;76.29
51468;BME280;37545;45.302;-122.946;2023-02-02T08:08:45;101443.84;;;1.29;75.80
51468;BME280;37545;45.302;-122.946;2023-02-02T08:11:17;101467.63;;;1.40;75.53
51468;BME280;37545;45.302;-122.946;2023-02-02T08:13:49;101467.38;;;1.37;75.26
51468;BME280;37545;45.302;-122.946;2023-02-02T08:16:18;101471.38;;;1.33;75.49
51468;BME280;37545;45.302;-122.946;2023-02-02T08:18:47;101464.09;;;1.28;76.03
51468;BME280;37545;45.302;-122.946;2023-02-02T08:21:16;101460.44;;;1.24;76.71
51468;BME280;37545;45.302;-122.946;2023-02-02T08:23:45;101465.28;;;1.21;76.15
51468;BME280;37545;45.302;-122.946;2023-02-02T08:26:18;101457.41;;;1.18;76.24
51468;BME280;37545;45.302;-122.946;2023-02-02T08:28:50;101459.72;;;1.15;76.55
51468;BME280;37545;45.302;-122.946;2023-02-02T08:31:20;101454.63;;;1.15;76.05
51468;BME280;37545;45.302;-122.946;2023-02-02T08:33:51;101452.59;;;1.11;75.53
51468;BME280;37545;45.302;-122.946;2023-02-02T08:36:21;101445.72;;;1.10;76.84
51468;BME280;37545;45.302;-122.946;2023-02-02T08:38:50;101447.25;;;1.08;76.77
51468;BME280;37545;45.302;-122.946;2023-02-02T08:41:22;101441.16;;;1.06;77.19
51468;BME280;37545;45.302;-122.946;2023-02-02T08:43:51;101445.25;;;1.03;77.26
51468;BME280;37545;45.302;-122.946;2023-02-02T08:46:20;101445.91;;;1.01;77.10
51468;BME280;37545;45.302;-122.946;2023-02-02T08:48:48;101439.78;;;0.99;77.09
51468;BME280;37545;45.302;-122.946;2023-02-02T08:51:18;101438.78;;;0.97;77.05
51468;BME280;37545;45.302;-122.946;2023-02-02T08:53:47;101439.44;;;0.94;77.06
51468;BME280;37545;45.302;-122.946;2023-02-02T08:56:17;101447.81;;;0.93;77.04
51468;BME280;37545;45.302;-122.946;2023-02-02T08:58:51;101444.25;;;0.91;76.99
51468;BME280;37545;45.302;-122.946;2023-02-02T09:01:22;101451.81;;;0.90;76.86
51468;BME280;37545;45.302;-122.946;2023-02-02T09:03:53;101450.66;;;0.86;76.96
51468;BME280;37545;45.302;-122.946;2023-02-02T09:06:25;101454.09;;;0.87;76.01
51468;BME280;37545;45.302;-122.946;2023-02-02T09:08:54;101460.63;;;0.83;75.00
51468;BME280;37545;45.302;-122.946;2023-02-02T09:11:22;101459.97;;;0.75;76.06
51468;BME280;37545;45.302;-122.946;2023-02-02T09:13:56;101457.84;;;0.70;76.34
51468;BME280;37545;45.302;-122.946;2023-02-02T09:16:25;101456.84;;;0.68;77.24
51468;BME280;37545;45.302;-122.946;2023-02-02T09:18:54;101460.28;;;0.68;77.54
51468;BME280;37545;45.302;-122.946;2023-02-02T09:21:23;101458.22;;;0.64;76.88
51468;BME280;37545;45.302;-122.946;2023-02-02T09:23:53;101463.75;;;0.58;77.55
51468;BME280;37545;45.302;-122.946;2023-02-02T09:26:23;101465.28;;;0.56;78.29
51468;BME280;37545;45.302;-122.946;2023-02-02T09:28:54;101464.38;;;0.56;78.84
51468;BME280;37545;45.302;-122.946;2023-02-02T09:31:24;101462.72;;;0.56;79.42
51468;BME280;37545;45.302;-122.946;2023-02-02T09:33:53;101467.06;;;0.57;79.62
51468;BME280;37545;45.302;-122.946;2023-02-02T09:36:23;101475.97;;;0.52;79.65
51468;BME280;37545;45.302;-122.946;2023-02-02T09:38:52;101468.31;;;0.52;78.90
51468;BME280;37545;45.302;-122.946;2023-02-02T09:41:50;101464.00;;;0.51;79.62
51468;BME280;37545;45.302;-122.946;2023-02-02T09:44:35;101472.41;;;0.50;78.97
51468;BME280;37545;45.302;-122.946;2023-02-02T09:47:15;101476.50;;;0.48;79.26
51468;BME280;37545;45.302;-122.946;2023-02-02T09:49:57;101470.41;;;0.46;79.52
51468;BME280;37545;45.302;-122.946;2023-02-02T09:52:32;101476.25;;;0.45;78.84
51468;BME280;37545;45.302;-122.946;2023-02-02T09:55:05;101476.00;;;0.42;78.68
51468;BME280;37545;45.302;-122.946;2023-02-02T09:57:40;101482.63;;;0.40;77.84
51468;BME280;37545;45.302;-122.946;2023-02-02T10:00:23;101473.81;;;0.36;77.76
51468;BME280;37545;45.302;-122.946;2023-02-02T10:02:57;101485.66;;;0.36;77.67
51468;BME280;37545;45.302;-122.946;2023-02-02T10:05:33;101489.75;;;0.34;77.37
51468;BME280;37545;45.302;-122.946;2023-02-02T10:08:05;101497.13;;;0.31;77.67
51468;BME280;37545;45.302;-122.946;2023-02-02T10:10:38;101495.34;;;0.30;78.49
51468;BME280;37545;45.302;-122.946;2023-02-02T10:13:08;101492.56;;;0.27;77.77
51468;BME280;37545;45.302;-122.946;2023-02-02T10:15:43;101500.81;;;0.24;78.21
51468;BME280;37545;45.302;-122.946;2023-02-02T10:18:18;101506.31;;;0.18;79.08
51468;BME280;37545;45.302;-122.946;2023-02-02T10:20:53;101504.13;;;0.13;79.63
51468;BME280;37545;45.302;-122.946;2023-02-02T10:23:26;101506.31;;;0.08;80.52
51468;BME280;37545;45.302;-122.946;2023-02-02T10:25:57;101502.00;;;0.07;80.42
51468;BME280;37545;45.302;-122.946;2023-02-02T10:28:40;101502.88;;;0.08;80.37
51468;BME280;37545;45.302;-122.946;2023-02-02T10:31:16;101501.22;;;-0.02;81.44
51468;BME280;37545;45.302;-122.946;2023-02-02T10:33:58;101490.38;;;-0.10;82.00
51468;BME280;37545;45.302;-122.946;2023-02-02T10:36:35;101494.59;;;-0.10;82.55
51468;BME280;37545;45.302;-122.946;2023-02-02T10:39:16;101494.72;;;-0.09;82.20
51468;BME280;37545;45.302;-122.946;2023-02-02T10:41:54;101496.34;;;-0.09;81.69
51468;BME280;37545;45.302;-122.946;2023-02-02T10:44:32;101498.16;;;-0.08;81.87
51468;BME280;37545;45.302;-122.946;2023-02-02T10:47:10;101492.03;;;-0.10;81.51
51468;BME280;37545;45.302;-122.946;2023-02-02T10:49:40;101483.88;;;-0.16;81.63
51468;BME280;37545;45.302;-122.946;2023-02-02T10:52:15;101487.59;;;-0.13;81.42
51468;BME280;37545;45.302;-122.946;2023-02-02T10:54:52;101493.41;;;-0.14;82.15
51468;BME280;37545;45.302;-122.946;2023-02-02T10:57:39;101490.00;;;-0.14;81.96
51468;BME280;37545;45.302;-122.946;2023-02-02T11:00:17;101483.88;;;-0.16;81.41
51468;BME280;37545;45.302;-122.946;2023-02-02T11:02:48;101492.28;;;-0.17;81.84
51468;BME280;37545;45.302;-122.946;2023-02-02T11:05:20;101486.97;;;-0.20;81.71
51468;BME280;37545;45.302;-122.946;2023-02-02T11:08:14;101490.25;;;-0.22;81.97
51468;BME280;37545;45.302;-122.946;2023-02-02T11:10:45;101494.06;;;-0.27;81.76
51468;BME280;37545;45.302;-122.946;2023-02-02T11:13:20;101491.38;;;-0.28;82.09
51468;BME280;37545;45.302;-122.946;2023-02-02T11:16:18;101499.91;;;-0.28;82.68
51468;BME280;37545;45.302;-122.946;2023-02-02T11:18:49;101499.78;;;-0.29;82.32
51468;BME280;37545;45.302;-122.946;2023-02-02T11:21:23;101496.34;;;-0.30;82.25
51468;BME280;37545;45.302;-122.946;2023-02-02T11:23:55;101492.00;;;-0.31;83.48
51468;BME280;37545;45.302;-122.946;2023-02-02T11:26:26;101488.72;;;-0.30;83.64
51468;BME280;37545;45.302;-122.946;2023-02-02T11:29:13;101491.28;;;-0.30;83.41
51468;BME280;37545;45.302;-122.946;2023-02-02T11:31:44;101491.38;;;-0.38;82.35
51468;BME280;37545;45.302;-122.946;2023-02-02T11:34:19;101497.59;;;-0.45;82.76
51468;BME280;37545;45.302;-122.946;2023-02-02T11:37:02;101503.41;;;-0.46;83.09
51468;BME280;37545;45.302;-122.946;2023-02-02T11:39:43;101504.94;;;-0.48;81.76
51468;BME280;37545;45.302;-122.946;2023-02-02T11:42:15;101502.13;;;-0.51;82.36
51468;BME280;37545;45.302;-122.946;2023-02-02T11:44:45;101507.22;;;-0.51;82.58
51468;BME280;37545;45.302;-122.946;2023-02-02T11:47:20;101499.59;;;-0.51;83.06
51468;BME280;37545;45.302;-122.946;2023-02-02T11:49:51;101509.91;;;-0.50;82.82
51468;BME280;37545;45.302;-122.946;2023-02-02T11:52:22;101513.09;;;-0.52;81.79
51468;BME280;37545;45.302;-122.946;2023-02-02T11:54:54;101515.09;;;-0.58;81.88
51468;BME280;37545;45.302;-122.946;2023-02-02T11:57:26;101531.22;;;-0.58;83.10
51468;BME280;37545;45.302;-122.946;2023-02-02T12:00:14;101527.78;;;-0.58;83.02
51468;BME280;37545;45.302;-122.946;2023-02-02T12:02:45;101527.94;;;-0.57;84.04
51468;BME280;37545;45.302;-122.946;2023-02-02T12:05:32;101523.50;;;-0.59;84.67
51468;BME280;37545;45.302;-122.946;2023-02-02T12:08:01;101530.19;;;-0.60;84.68
51468;BME280;37545;45.302;-122.946;2023-02-02T12:10:35;101530.09;;;-0.61;84.70
51468;BME280;37545;45.302;-122.946;2023-02-02T12:13:08;101524.09;;;-0.62;84.63
51468;BME280;37545;45.302;-122.946;2023-02-02T12:15:46;101528.28;;;-0.63;84.22
51468;BME280;37545;45.302;-122.946;2023-02-02T12:18:39;101534.25;;;-0.62;85.25
51468;BME280;37545;45.302;-122.946;2023-02-02T12:21:16;101529.06;;;-0.64;85.22
51468;BME280;37545;45.302;-122.946;2023-02-02T12:23:58;101520.56;;;-0.64;85.57
51468;BME280;37545;45.302;-122.946;2023-02-02T12:26:31;101523.84;;;-0.65;85.37
51468;BME280;37545;45.302;-122.946;2023-02-02T12:29:13;101514.66;;;-0.73;85.36
51468;BME280;37545;45.302;-122.946;2023-02-02T12:32:10;101533.84;;;-0.67;85.20
51468;BME280;37545;45.302;-122.946;2023-02-02T12:34:51;101528.03;;;-0.66;84.80
51468;BME280;37545;45.302;-122.946;2023-02-02T12:37:34;101519.53;;;-0.66;84.63
51468;BME280;37545;45.302;-122.946;2023-02-02T12:40:25;101520.91;;;-0.70;83.84
51468;BME280;37545;45.302;-122.946;2023-02-02T12:43:06;101527.78;;;-0.69;83.81
51468;BME280;37545;45.302;-122.946;2023-02-02T12:45:48;101519.13;;;-0.71;83.26
51468;BME280;37545;45.302;-122.946;2023-02-02T12:48:39;101522.41;;;-0.72;83.78
51468;BME280;37545;45.302;-122.946;2023-02-02T12:51:20;101519.63;;;-0.75;83.53
51468;BME280;37545;45.302;-122.946;2023-02-02T12:54:17;101523.13;;;-0.83;83.87
51468;BME280;37545;45.302;-122.946;2023-02-02T12:56:53;101531.59;;;-0.93;85.59
51468;BME280;37545;45.302;-122.946;2023-02-02T12:59:36;101528.78;;;-0.96;85.41
51468;BME280;37545;45.302;-122.946;2023-02-02T13:02:18;101532.22;;;-0.95;86.11
51468;BME280;37545;45.302;-122.946;2023-02-02T13:04:57;101528.91;;;-0.94;87.08